createdAt,value
2023-01-12T00:02:07.667Z,95519.03
2023-01-12T00:04:35.942Z,95525.69
2023-01-12T00:07:06.592Z,95529.97
2023-01-12T00:09:34.803Z,95505.28
2023-01-12T00:12:04.481Z,95532.38
2023-01-12T00:14:32.389Z,95522.56
2023-01-12T00:17:00.335Z,95490.72
2023-01-12T00:19:29.707Z,95525.41
2023-01-12T00:22:02.281Z,95485.44
2023-01-12T00:24:31.510Z,95522.03
2023-01-12T00:27:01.011Z,95525.72
2023-01-12T00:29:29.672Z,95537.66
2023-01-12T00:31:59.107Z,95531.06
2023-01-12T00:34:29.403Z,95519.63
2023-01-12T00:37:01.670Z,95526.50
2023-01-12T00:39:29.854Z,95509.81
2023-01-12T00:42:15.970Z,95532.88
2023-01-12T00:45:01.537Z,95529.47
2023-01-12T00:47:29.392Z,95466.56
2023-01-12T00:49:57.261Z,95526.75
2023-01-12T00:52:31.389Z,95523.84
2023-01-12T00:55:00.742Z,95537.66
2023-01-12T00:57:29.623Z,95527.53
2023-01-12T00:59:59.365Z,95531.28
2023-01-12T01:02:27.664Z,95526.50
2023-01-12T01:04:55.723Z,95527.53
2023-01-12T01:07:23.842Z,95514.47
2023-01-12T01:09:55.837Z,95533.16
2023-01-12T01:12:24.064Z,95525.41
2023-01-12T01:14:53.457Z,95533.41
2023-01-12T01:17:21.356Z,95496.31
2023-01-12T01:19:49.437Z,95527.56
2023-01-12T01:22:17.349Z,95535.31
2023-01-12T01:24:45.275Z,95535.06
2023-01-12T01:27:15.238Z,95533.50
2023-01-12T01:29:44.380Z,95519.97
2023-01-12T01:32:12.632Z,95521.31
2023-01-12T01:34:40.994Z,95549.50
2023-01-12T01:37:08.824Z,95528.56
2023-01-12T01:39:36.924Z,95530.94
2023-01-12T01:42:04.851Z,95533.56
2023-01-12T01:44:53.727Z,95491.66
2023-01-12T01:47:29.807Z,95544.44
2023-01-12T01:50:01.679Z,95546.56
2023-01-12T01:52:33.865Z,95554.84
2023-01-12T01:55:08.087Z,95521.66
2023-01-12T01:57:41.586Z,95555.63
2023-01-12T02:00:13.267Z,95538.94
2023-01-12T02:02:42.991Z,95547.44
2023-01-12T02:05:12.474Z,95563.94
2023-01-12T02:07:41.817Z,95553.22
2023-01-12T02:10:11.098Z,95549.78
2023-01-12T02:12:56.931Z,95554.31
2023-01-12T02:15:47.256Z,95473.13
2023-01-12T02:18:23.186Z,95546.59
2023-01-12T02:21:03.046Z,95554.81
2023-01-12T02:24:18.771Z,95543.41
2023-01-12T02:27:29.923Z,95549.75
2023-01-12T02:30:39.917Z,95505.78
2023-01-12T02:33:24.921Z,95528.88
2023-01-12T02:35:59.593Z,95550.59
2023-01-12T02:38:36.138Z,95548.47
2023-01-12T02:41:12.365Z,95559.34
2023-01-12T02:43:41.438Z,95551.88
2023-01-12T02:46:15.973Z,95549.00
2023-01-12T02:48:51.814Z,95523.47
2023-01-12T02:51:28.314Z,95546.84
2023-01-12T02:54:01.372Z,95544.19
2023-01-12T02:56:33.253Z,95551.66
2023-01-12T02:59:04.878Z,95553.81
2023-01-12T03:01:34.072Z,95544.44
2023-01-12T03:04:07.077Z,95523.78
2023-01-12T03:06:41.832Z,95500.69
2023-01-12T03:09:11.178Z,95533.56
2023-01-12T03:11:41.655Z,95530.38
2023-01-12T03:14:12.302Z,95478.88
2023-01-12T03:16:41.565Z,95493.81
2023-01-12T03:19:15.808Z,95533.78
2023-01-12T03:21:51.201Z,95529.28
2023-01-12T03:24:23.072Z,95537.25
2023-01-12T03:26:53.512Z,95510.47
2023-01-12T03:29:35.663Z,95500.38
2023-01-12T03:32:04.518Z,95535.16
2023-01-12T03:34:34.870Z,95458.50
2023-01-12T03:37:12.682Z,95475.72
2023-01-12T03:39:47.634Z,95532.22
2023-01-12T03:42:21.343Z,95347.19
2023-01-12T03:45:01.925Z,95523.41
2023-01-12T03:47:32.474Z,95532.72
2023-01-12T03:50:07.341Z,95523.22
2023-01-12T03:52:37.995Z,95505.13
2023-01-12T03:55:09.473Z,95481.00
2023-01-12T03:57:39.403Z,95513.38
2023-01-12T04:00:10.702Z,95512.75
2023-01-12T04:02:38.601Z,95517.81
2023-01-12T04:05:10.415Z,95462.16
2023-01-12T04:07:38.281Z,95531.09
2023-01-12T04:10:07.484Z,95505.41
2023-01-12T04:12:35.390Z,95530.34
2023-01-12T04:15:03.261Z,95528.19
2023-01-12T04:17:31.109Z,95531.66
2023-01-12T04:19:58.974Z,95528.19
2023-01-12T04:22:45.378Z,95515.72
2023-01-12T04:25:14.688Z,95473.06
2023-01-12T04:27:46.595Z,95492.16
2023-01-12T04:30:15.732Z,95511.16
2023-01-12T04:32:44.510Z,95528.94
2023-01-12T04:35:13.356Z,95536.69
2023-01-12T04:37:42.596Z,95538.03
2023-01-12T04:40:12.756Z,95510.97
2023-01-12T04:43:08.268Z,95524.53
2023-01-12T04:45:37.878Z,95536.72
2023-01-12T04:48:07.795Z,95526.09
2023-01-12T04:50:36.156Z,95536.72
2023-01-12T04:53:06.351Z,95544.16
2023-01-12T04:55:34.679Z,95545.75
2023-01-12T04:58:02.540Z,95539.06
2023-01-12T05:00:30.521Z,95543.06
2023-01-12T05:02:59.447Z,95547.53
2023-01-12T05:05:27.705Z,95542.81
2023-01-12T05:08:12.769Z,95552.88
2023-01-12T05:10:41.998Z,95554.72
2023-01-12T05:13:09.886Z,95552.88
2023-01-12T05:15:37.734Z,95552.63
2023-01-12T05:18:05.870Z,95553.97
2023-01-12T05:20:33.757Z,95567.00
2023-01-12T05:23:01.644Z,95540.41
2023-01-12T05:25:29.565Z,95572.31
2023-01-12T05:27:58.911Z,95542.81
2023-01-12T05:30:29.960Z,95563.28
2023-01-12T05:32:59.393Z,95573.34
2023-01-12T05:35:29.353Z,95574.16
2023-01-12T05:38:02.951Z,95585.31
2023-01-12T05:40:30.855Z,95488.50
2023-01-12T05:43:16.744Z,95590.09
2023-01-12T05:45:44.733Z,95599.16
2023-01-12T05:48:13.237Z,95598.88
2023-01-12T05:50:41.169Z,95611.38
2023-01-12T05:53:09.196Z,95611.41
2023-01-12T05:55:38.537Z,95515.63
2023-01-12T05:58:10.324Z,95602.13
2023-01-12T06:00:39.680Z,95607.41
2023-01-12T06:03:07.536Z,95477.41
2023-01-12T06:05:35.435Z,95605.28
2023-01-12T06:08:03.433Z,95607.41
2023-01-12T06:10:32.968Z,95586.94
2023-01-12T06:13:18.135Z,95605.28
2023-01-12T06:15:47.394Z,95607.69
2023-01-12T06:18:15.310Z,95607.41
2023-01-12T06:20:43.171Z,95593.06
2023-01-12T06:23:11.127Z,95603.69
2023-01-12T06:25:39.045Z,95587.75
2023-01-12T06:28:07.778Z,95584.00
2023-01-12T06:30:35.618Z,95594.38
2023-01-12T06:33:05.420Z,95558.78
2023-01-12T06:35:33.266Z,95585.06
2023-01-12T06:38:01.107Z,95605.75
2023-01-12T06:40:29.120Z,95605.19
2023-01-12T06:42:56.014Z,95611.03
2023-01-12T06:45:23.855Z,95609.50
2023-01-12T06:47:52.276Z,95613.97
2023-01-12T06:50:21.704Z,95605.19
2023-01-12T06:52:50.173Z,95613.38
2023-01-12T06:55:18.292Z,95605.69
2023-01-12T06:57:46.203Z,95623.00
2023-01-12T07:00:15.284Z,95609.50
2023-01-12T07:02:43.474Z,95607.41
2023-01-12T07:05:11.440Z,95611.59
2023-01-12T07:07:40.798Z,95596.72
2023-01-12T07:10:09.591Z,95622.47
2023-01-12T07:12:37.564Z,95615.22
2023-01-12T07:51:55.666Z,95620.22
2023-01-12T07:54:24.237Z,95630.38
2023-01-12T07:56:52.348Z,95616.00
2023-01-12T07:59:20.499Z,95617.53
2023-01-12T08:01:48.699Z,95623.16
2023-01-12T08:04:16.978Z,95609.03
2023-01-12T08:06:45.096Z,95622.28
2023-01-12T08:09:14.561Z,95625.38
2023-01-12T08:11:42.704Z,95620.03
2023-01-12T08:14:19.903Z,95623.13
2023-01-12T08:16:49.913Z,95608.28
2023-01-12T08:19:23.680Z,95602.44
2023-01-12T08:21:58.710Z,95623.59
2023-01-12T08:24:32.683Z,95625.16
2023-01-12T08:27:05.049Z,95597.97
2023-01-12T08:29:40.309Z,95617.69
2023-01-12T08:34:45.103Z,95594.19
2023-01-12T08:37:16.261Z,95627.59
2023-01-12T08:39:47.266Z,95619.28
2023-01-12T08:42:15.888Z,95616.34
2023-01-12T08:44:44.409Z,95573.16
2023-01-12T08:47:20.801Z,95617.78
2023-01-12T08:49:48.740Z,95618.44
2023-01-12T08:52:17.392Z,95587.03
2023-01-12T08:54:47.241Z,95616.72
2023-01-12T08:57:16.337Z,95621.28
2023-01-12T08:59:44.633Z,95632.81
2023-01-12T09:02:13.280Z,95632.34
2023-01-12T09:04:41.422Z,95609.00
2023-01-12T09:07:10.435Z,95636.13
2023-01-12T09:09:38.472Z,95623.84
2023-01-12T09:12:08.237Z,95645.66
2023-01-12T09:14:38.926Z,95634.47
2023-01-12T09:17:07.805Z,95633.84
2023-01-12T09:19:35.905Z,95613.44
2023-01-12T09:22:03.862Z,95621.47
2023-01-12T09:24:31.824Z,95629.59
2023-01-12T09:27:00.059Z,95625.00
2023-01-12T09:29:29.362Z,95605.44
2023-01-12T09:31:57.442Z,95621.41
2023-01-12T09:34:25.468Z,95620.63
2023-01-12T09:36:56.223Z,95619.47
2023-01-12T09:39:28.357Z,95593.53
2023-01-12T09:42:14.798Z,95590.00
2023-01-12T09:45:04.020Z,95615.63
2023-01-12T09:47:37.010Z,95577.34
2023-01-12T09:50:11.795Z,95615.78
2023-01-12T09:52:43.268Z,95614.69
2023-01-12T09:55:16.360Z,95592.06
2023-01-12T09:58:06.444Z,95595.81
2023-01-12T10:00:35.949Z,95576.00
2023-01-12T10:03:23.224Z,95599.44
2023-01-12T10:05:54.055Z,95603.47
2023-01-12T10:08:30.451Z,95555.38
2023-01-12T10:11:17.048Z,95605.22
2023-01-12T10:14:27.489Z,95607.53
2023-01-12T10:17:10.141Z,95595.31
2023-01-12T10:19:50.806Z,95611.94
2023-01-12T10:25:41.501Z,95583.06
2023-01-12T10:28:16.837Z,95550.06
2023-01-12T10:30:47.150Z,95599.03
2023-01-12T10:33:18.016Z,95529.13
2023-01-12T10:35:51.973Z,95600.94
2023-01-12T10:38:24.107Z,95598.84
2023-01-12T10:41:17.037Z,95604.72
2023-01-12T10:43:46.744Z,95599.03
2023-01-12T10:46:19.172Z,95615.19
2023-01-12T10:48:48.812Z,95581.28
2023-01-12T10:51:23.624Z,95594.03
2023-01-12T10:53:55.717Z,95595.53
2023-01-12T10:56:32.974Z,95578.84
2023-01-12T10:59:04.073Z,95512.03
2023-01-12T11:01:50.982Z,95574.16
2023-01-12T11:04:22.503Z,95578.22
2023-01-12T11:07:05.218Z,95577.69
2023-01-12T11:09:33.444Z,95584.34
2023-01-12T11:12:05.487Z,95545.41
2023-01-12T11:14:35.979Z,95581.09
2023-01-12T11:17:22.942Z,95569.38
2023-01-12T11:19:53.626Z,95568.81
2023-01-12T11:22:27.554Z,95555.09
2023-01-12T11:25:01.967Z,95572.28
2023-01-12T11:27:37.240Z,95560.72
2023-01-12T11:30:14.742Z,95557.81
2023-01-12T11:32:49.177Z,95554.81
2023-01-12T11:35:29.309Z,95551.69
2023-01-12T11:38:05.422Z,95574.22
2023-01-12T11:40:37.685Z,95554.47
2023-01-12T11:43:37.038Z,95547.31
2023-01-12T11:46:13.695Z,95559.50
2023-01-12T11:48:48.512Z,95531.22
2023-01-12T11:51:17.419Z,95516.94
2023-01-12T11:53:46.322Z,95546.81
2023-01-12T11:56:44.274Z,95547.53
2023-01-12T11:59:19.400Z,95530.25
2023-01-12T12:01:57.142Z,95533.16
2023-01-12T12:04:44.095Z,95488.81
2023-01-12T12:07:25.334Z,95536.00
2023-01-12T12:10:15.109Z,95523.63
2023-01-12T12:12:49.211Z,95518.56
2023-01-12T12:15:31.680Z,95536.53
2023-01-12T12:18:15.019Z,95529.16
2023-01-12T12:20:53.132Z,95520.03
2023-01-12T12:23:31.564Z,95537.31
2023-01-12T12:26:09.804Z,95511.94
2023-01-12T12:29:11.963Z,95527.97
2023-01-12T12:32:03.453Z,95527.97
2023-01-12T12:34:49.405Z,95529.16
2023-01-12T12:37:25.442Z,95530.63
2023-01-12T12:39:58.045Z,95491.69
2023-01-12T12:42:56.624Z,95524.78
2023-01-12T12:45:34.477Z,95533.84
2023-01-12T12:48:10.041Z,95529.63
2023-01-12T12:50:44.254Z,95535.72
2023-01-12T12:53:21.452Z,95537.97
2023-01-12T12:55:52.852Z,95509.09
2023-01-12T12:58:45.956Z,95530.31
2023-01-12T13:01:55.715Z,95539.53
2023-01-12T13:05:04.996Z,95548.84
2023-01-12T13:07:37.770Z,95523.81
2023-01-12T13:10:26.480Z,95496.25
2023-01-12T13:13:04.370Z,95528.72
2023-01-12T13:15:37.290Z,95495.94
2023-01-12T13:18:07.214Z,95546.97
2023-01-12T13:20:56.007Z,95532.47
2023-01-12T13:23:44.558Z,95554.44
2023-01-12T13:26:30.002Z,95543.69
2023-01-12T13:29:31.662Z,95552.69
2023-01-12T13:32:23.161Z,95512.19
2023-01-12T13:34:51.471Z,95554.44
2023-01-12T13:37:28.352Z,95548.28
2023-01-12T13:40:04.781Z,95557.97
2023-01-12T13:42:55.169Z,95554.94
2023-01-12T13:45:24.583Z,95550.03
2023-01-12T13:47:54.675Z,95533.56
2023-01-12T13:50:25.711Z,95528.16
2023-01-12T13:53:06.605Z,95548.28
2023-01-12T13:55:37.094Z,95548.28
2023-01-12T13:58:08.304Z,95535.94
2023-01-12T14:00:36.418Z,95543.66
2023-01-12T14:03:05.965Z,95533.06
2023-01-12T14:05:55.466Z,95544.59
2023-01-12T14:08:51.880Z,95546.19
2023-01-12T14:11:47.351Z,95544.59
2023-01-12T14:14:51.479Z,95540.34
2023-01-12T14:17:44.499Z,95543.38
2023-01-12T14:20:17.128Z,95534.72
2023-01-12T14:22:46.357Z,95472.66
2023-01-12T14:25:19.683Z,95502.91
2023-01-12T14:27:52.568Z,95527.81
2023-01-12T14:30:22.118Z,95502.09
2023-01-12T14:32:52.451Z,95547.88
2023-01-12T14:35:23.070Z,95532.34
2023-01-12T14:37:53.898Z,95549.88
2023-01-12T14:40:27.043Z,95553.09
2023-01-12T14:43:13.131Z,95552.28
2023-01-12T14:46:12.301Z,95409.47
2023-01-12T14:48:43.708Z,95546.13
2023-01-12T14:51:19.729Z,95558.41
2023-01-12T14:53:48.994Z,95564.59
2023-01-12T14:56:22.260Z,95525.88
2023-01-12T14:58:50.646Z,95562.44
2023-01-12T15:01:34.346Z,95567.88
2023-01-12T15:04:03.322Z,95535.56
2023-01-12T15:06:32.724Z,95576.00
2023-01-12T15:09:02.240Z,95575.81
2023-01-12T15:11:34.390Z,95587.59
2023-01-12T15:14:03.287Z,95580.91
2023-01-12T15:16:48.493Z,95566.66
2023-01-12T15:19:33.841Z,95588.91
2023-01-12T15:22:19.857Z,95585.00
2023-01-12T15:25:05.372Z,95583.19
2023-01-12T15:27:35.252Z,95586.47
2023-01-12T15:30:03.245Z,95591.00
2023-01-12T15:32:46.896Z,95518.72
2023-01-12T15:35:21.391Z,95595.56
2023-01-12T15:37:49.558Z,95552.84
2023-01-12T15:40:18.845Z,95601.56
2023-01-12T15:42:48.210Z,95606.09
2023-01-12T15:45:22.759Z,95593.66
2023-01-12T15:47:52.092Z,95547.25
2023-01-12T15:50:20.160Z,95609.09
2023-01-12T15:52:49.172Z,95597.69
2023-01-12T15:55:19.436Z,95608.59
2023-01-12T15:57:50.812Z,95615.09
2023-01-12T16:00:21.663Z,95590.66
2023-01-12T16:02:50.554Z,95581.75
2023-01-12T16:05:21.469Z,95635.16
2023-01-12T16:07:49.863Z,95612.22
2023-01-12T16:10:19.187Z,95616.19
2023-01-12T16:12:49.178Z,95602.16
2023-01-12T16:15:19.345Z,95614.66
2023-01-12T16:17:48.149Z,95624.69
2023-01-12T16:20:18.422Z,95570.63
2023-01-12T16:22:47.734Z,95625.31
2023-01-12T16:25:16.524Z,95630.94
2023-01-12T16:27:44.954Z,95605.47
2023-01-12T16:30:17.810Z,95624.28
2023-01-12T16:32:47.361Z,95632.78
2023-01-12T16:35:16.765Z,95632.53
2023-01-12T16:37:45.135Z,95631.19
2023-01-12T16:40:14.016Z,95544.00
2023-01-12T16:42:42.028Z,95613.19
2023-01-12T16:45:11.085Z,95641.50
2023-01-12T16:47:40.521Z,95644.94
2023-01-12T16:50:09.409Z,95642.31
2023-01-12T16:52:37.585Z,95603.09
2023-01-12T16:55:06.088Z,95649.09
2023-01-12T16:57:34.955Z,95650.69
2023-01-12T17:00:03.214Z,95649.88
2023-01-12T17:02:32.452Z,95654.66
2023-01-12T17:05:02.313Z,95651.91
2023-01-12T17:07:30.971Z,95537.38
2023-01-12T17:09:59.915Z,95662.56
2023-01-12T17:12:28.298Z,95669.31
2023-01-12T17:14:56.730Z,95652.84
2023-01-12T17:17:24.803Z,95643.88
2023-01-12T17:19:53.498Z,95675.94
2023-01-12T17:22:24.370Z,95668.06
2023-01-12T17:24:52.670Z,95608.63
2023-01-12T17:27:20.987Z,95690.97
2023-01-12T17:29:49.188Z,95692.28
2023-01-12T17:32:17.536Z,95676.88
2023-01-12T17:34:48.156Z,95688.91
2023-01-12T17:37:17.371Z,95659.69
2023-01-12T17:39:47.522Z,95686.44
2023-01-12T17:42:35.696Z,95692.06
2023-01-12T17:45:07.037Z,95686.69
2023-01-12T17:47:35.108Z,95694.09
2023-01-12T17:50:03.296Z,95696.78
2023-01-12T17:52:31.296Z,95700.75
2023-01-12T17:55:00.895Z,95695.69
2023-01-12T17:57:29.990Z,95694.59
2023-01-12T17:59:58.141Z,95697.25
2023-01-12T18:02:26.389Z,95657.75
2023-01-12T18:04:54.515Z,95700.75
2023-01-12T18:07:22.670Z,95705.84
2023-01-12T18:09:51.199Z,95700.53
2023-01-12T18:12:21.644Z,95693.56
2023-01-12T18:14:49.792Z,95708.25
2023-01-12T18:17:17.827Z,95699.72
2023-01-12T18:19:48.535Z,95700.53
2023-01-12T18:22:16.501Z,95666.03
2023-01-12T18:24:47.148Z,95704.53
2023-01-12T18:27:17.389Z,95681.41
2023-01-12T18:29:46.750Z,95701.00
2023-01-12T18:32:14.888Z,95716.78
2023-01-12T18:34:43.586Z,95709.06
2023-01-12T18:37:13.615Z,95712.22
2023-01-12T18:39:43.981Z,95713.88
2023-01-12T18:42:29.452Z,95713.38
2023-01-12T18:45:00.036Z,95708.53
2023-01-12T18:47:45.461Z,95696.31
2023-01-12T18:50:27.612Z,95709.06
2023-01-12T18:53:13.558Z,95653.31
2023-01-12T18:55:41.730Z,95708.19
2023-01-12T18:58:09.793Z,95682.47
2023-01-12T19:00:39.198Z,95713.03
2023-01-12T19:03:07.581Z,95714.09
2023-01-12T19:05:44.119Z,95713.03
2023-01-12T19:08:29.399Z,95711.91
2023-01-12T19:11:08.364Z,95716.47
2023-01-12T19:13:53.877Z,95707.19
2023-01-12T19:16:41.262Z,95684.13
2023-01-12T19:19:09.344Z,95717.09
2023-01-12T19:21:55.099Z,95706.13
2023-01-12T19:24:41.361Z,95718.69
2023-01-12T19:27:29.800Z,95654.72
2023-01-12T19:29:58.018Z,95672.03
2023-01-12T19:32:27.489Z,95723.28
2023-01-12T19:35:02.342Z,95711.78
2023-01-12T19:37:34.962Z,95709.66
2023-01-12T19:40:07.414Z,95713.97
2023-01-12T19:42:53.720Z,95691.69
2023-01-12T19:45:22.142Z,95699.97
2023-01-12T19:47:54.045Z,95711.81
2023-01-12T19:50:22.114Z,95705.47
2023-01-12T19:52:50.020Z,95708.94
2023-01-12T19:55:20.541Z,95711.09
2023-01-12T19:57:48.760Z,95715.88
2023-01-12T20:00:17.719Z,95711.88
2023-01-12T20:02:46.543Z,95718.34
2023-01-12T20:05:22.396Z,95717.50
2023-01-12T20:07:53.307Z,95718.03
2023-01-12T20:10:22.259Z,95714.56
2023-01-12T20:12:52.504Z,95719.09
2023-01-12T20:15:21.803Z,95711.47
2023-01-12T20:17:50.543Z,95727.63
2023-01-12T20:20:20.399Z,95720.44
2023-01-12T20:23:11.414Z,95620.09
2023-01-12T20:25:41.248Z,95724.69
2023-01-12T20:28:09.406Z,95726.31
2023-01-12T20:30:38.755Z,95727.66
2023-01-12T20:33:07.374Z,95700.81
2023-01-12T20:35:38.421Z,95727.88
2023-01-12T20:38:13.236Z,95731.88
2023-01-12T20:40:41.558Z,95711.69
2023-01-12T20:43:09.507Z,95714.63
2023-01-12T20:45:38.088Z,95707.19
2023-01-12T20:48:06.172Z,95709.28
2023-01-12T20:50:34.087Z,95726.03
2023-01-12T20:53:03.459Z,95665.78
2023-01-12T20:55:31.930Z,95731.09
2023-01-12T20:57:59.912Z,95734.03
2023-01-12T21:00:29.200Z,95715.38
2023-01-12T21:02:57.342Z,95707.72
2023-01-12T21:05:27.905Z,95723.13
2023-01-12T21:08:07.401Z,95730.03
2023-01-12T21:10:37.585Z,95725.78
2023-01-12T21:13:05.747Z,95733.22
2023-01-12T21:15:33.992Z,95725.50
2023-01-12T21:18:01.904Z,95727.38
2023-01-12T21:20:29.884Z,95731.66
2023-01-12T21:22:58.179Z,95727.13
2023-01-12T21:25:27.926Z,95729.50
2023-01-12T21:27:57.286Z,95717.03
2023-01-12T21:30:25.269Z,95722.31
2023-01-12T21:32:55.132Z,95725.28
2023-01-12T21:35:24.076Z,95724.72
2023-01-12T21:37:54.194Z,95718.91
2023-01-12T21:40:22.322Z,95720.22
2023-01-12T21:43:07.633Z,95702.50
2023-01-12T21:45:38.123Z,95726.06
2023-01-12T21:48:06.823Z,95724.19
2023-01-12T21:50:35.309Z,95716.75
2023-01-12T21:53:03.784Z,95722.91
2023-01-12T21:55:32.352Z,95701.41
2023-01-12T21:58:01.974Z,95712.03
2023-01-12T22:00:30.097Z,95689.38
2023-01-12T22:02:59.540Z,95706.66
2023-01-12T22:05:28.074Z,95697.00
2023-01-12T22:07:57.850Z,95715.13
2023-01-12T22:10:30.497Z,95674.78
2023-01-12T22:13:00.875Z,95689.09
2023-01-12T22:15:31.112Z,95575.00
2023-01-12T22:18:02.784Z,95654.06
2023-01-12T22:20:30.720Z,95702.34
2023-01-12T22:22:59.140Z,95704.50
2023-01-12T22:25:27.565Z,95703.72
2023-01-12T22:27:57.191Z,95709.84
2023-01-12T22:30:25.948Z,95679.56
2023-01-12T22:32:55.692Z,95701.84
2023-01-12T22:35:26.196Z,95685.91
2023-01-12T22:37:54.731Z,95684.84
2023-01-12T22:40:22.879Z,95701.81
2023-01-12T22:43:08.509Z,95686.88
2023-01-12T22:45:37.711Z,95687.19
2023-01-12T22:48:06.347Z,95602.00
2023-01-12T22:50:35.728Z,95680.53
2023-01-12T22:53:03.625Z,95677.84
2023-01-12T22:55:31.583Z,95680.72
2023-01-12T22:57:59.557Z,95675.13
2023-01-12T23:00:27.429Z,95643.88
2023-01-12T23:03:01.623Z,95683.44
2023-01-12T23:05:33.189Z,95691.19
2023-01-12T23:08:03.281Z,95678.63
2023-01-12T23:10:31.443Z,95641.22
2023-01-12T23:13:17.843Z,95683.69
2023-01-12T23:15:48.330Z,95694.63
2023-01-12T23:18:18.363Z,95660.31
2023-01-12T23:20:46.767Z,95636.94
2023-01-12T23:23:18.024Z,95622.09
2023-01-12T23:25:46.847Z,95680.72
2023-01-12T23:28:15.912Z,95677.84
2023-01-12T23:30:44.511Z,95675.88
2023-01-12T23:33:13.761Z,95677.22
2023-01-12T23:35:43.117Z,95675.44
2023-01-12T23:38:17.201Z,95682.63
2023-01-12T23:40:45.223Z,95684.22
2023-01-12T23:43:14.317Z,95690.66
2023-01-12T23:45:42.215Z,95689.31
2023-01-12T23:48:10.251Z,95604.03
2023-01-12T23:50:38.212Z,95647.03
2023-01-12T23:53:06.296Z,95687.84
2023-01-12T23:55:39.257Z,95680.94
2023-01-12T23:58:08.156Z,95685.78
